Station: Mount Gambier  

  Atmospheric Gas Attenuation - ITU Rec 676-11   ----------------- dB/100km -----------------
Date Time Temp RH % AH g/m3 Dew Point Wind Direction Speed kph Gust kph Barometer mB Rainfall Since 9am 24GHz 47GHz 76GHz 122GHz 134GHz 241GHz
08/05 12:00 13.6 89 10.47 11.8 30 48 1027.8 0.2 23.6 29.7 48.4 127.2 125.7 433.8
08/05 11:50 14.3 91 11.18 12.9 24 30 1027.8 0.2 25.1 30.7 51.1 134.4 134.7 465.4
08/05 11:40 14.2 91 11.11 12.8 26 32 1027.9 0.2 24.9 30.6 50.8 133.7 133.9 462.5
08/05 11:30 13.7 91 10.78 12.3 24 35 1027.8 0.2 24.2 30.2 49.7 130.7 130.0 448.8
08/05 11:20 13.7 89 10.54 11.9 33 37 1028 0 23.7 29.8 48.7 127.9 126.6 436.8
08/05 11:10 13.9 91 10.91 12.5 26 30 1028 0 24.5 30.3 50.2 131.9 131.5 454.2
08/05 11:00 13.3 88 10.17 11.4 35 48 1027.9 0 23.0 29.3 47.3 124.3 121.9 420.6
08/05 10:50 14.6 84 10.51 11.9 30 35 1027.9 0 23.6 29.4 48.0 126.1 124.7 430.3
08/05 10:40 13.8 83 9.89 11 33 39 1027.9 0 22.3 28.6 45.8 120.3 117.2 404.1
08/05 10:30 14.3 88 10.81 12.3 24 32 1027.7 0 24.3 30.0 49.5 130.0 129.4 446.8
08/05 10:20 13.3 91 10.51 11.9 19 22 1027.8 0 23.7 29.8 48.8 128.2 126.8 437.5
08/05 10:10 13.2 91 10.45 11.8 28 33 1027.8 0 23.6 29.8 48.6 127.7 126.1 435.1
08/05 10:00 13.2 91 10.45 11.8 26 33 1027.6 0 23.6 29.8 48.6 127.6 126.1 435.0
08/05 09:50 13.2 92 10.56 11.9 22 26 1027.6 0 23.8 30.0 49.1 128.9 127.7 440.5
08/05 09:40 13.1 92 10.5 11.8 28 33 1027.7 0 23.7 29.9 48.9 128.4 127.0 438.1
08/05 09:30 13.2 92 10.56 11.9 24 33 1027.5 0 23.8 30.0 49.0 128.9 127.6 440.5
08/05 09:20 13.1 93 10.61 12 32 37 1027.7 0 23.9 30.1 49.3 129.7 128.6 443.7
08/05 09:10 12.9 94 10.6 12 26 30 1027.8 0 23.9 30.1 49.4 129.9 128.8 444.3
08/05 09:00 12.8 94 10.53 11.9 24 33 1027.7 0 23.8 30.0 49.2 129.3 127.9 441.3
08/05 08:50 12.5 95 10.45 11.7 19 22 1027.8 3 23.6 30.0 49.0 128.8 127.3 439.0
08/05 08:40 12.5 95 10.45 11.7 26 33 1027.8 2.8 23.6 30.0 49.0 128.8 127.3 439.0
08/05 08:30 12.3 95 10.32 11.5 26 35 1027.8 2.8 23.3 29.9 48.6 127.6 125.7 433.6
08/05 08:20 12.2 95 10.25 11.4 26 32 1027.7 2.8 23.2 29.8 48.3 127.0 124.8 430.6
08/05 08:10 12 95 10.13 11.2 22 26 1027.6 2.8 22.9 29.6 47.9 125.9 123.4 425.6
08/05 08:00 12 94 10.02 11.1 24 37 1027.5 2.8 22.7 29.4 47.4 124.6 121.8 420.0
08/05 07:50 11.9 94 9.96 11 24 30 1027.4 2.8 22.6 29.3 47.2 124.0 121.1 417.5
08/05 07:40 11.9 94 9.96 11 26 32 1027.3 2.8 22.6 29.3 47.2 124.0 121.1 417.5
08/05 07:30 11.9 94 9.96 11 24 30 1027.1 2.8 22.6 29.3 47.2 124.0 121.1 417.4
08/05 07:20 11.9 93 9.85 10.8 22 28 1027 2.8 22.3 29.1 46.7 122.7 119.5 411.9
08/05 07:10 11.9 93 9.85 10.8 20 30 1026.7 2.6 22.3 29.1 46.7 122.7 119.5 411.8
08/05 07:00 11.9 92 9.74 10.6 19 28 1026.5 2.6 22.1 28.9 46.2 121.4 117.9 406.2
08/05 06:50 12.1 92 9.87 10.8 17 20 1026.4 2.6 22.4 29.1 46.7 122.5 119.4 411.6
08/05 06:40 12 91 9.7 10.6 19 20 1026.3 2.6 22.0 28.8 46.0 120.7 117.1 403.7
08/05 06:30 12 91 9.7 10.6 22 32 1026.3 2.6 22.0 28.8 46.0 120.7 117.1 403.7
08/05 06:20 12 91 9.7 10.6 24 28 1026 2.6 22.0 28.8 46.0 120.7 117.1 403.6
08/05 06:10 12.1 91 9.76 10.7 20 24 1026 2.4 22.1 28.9 46.2 121.2 117.8 406.0
08/05 06:00 12.1 91 9.76 10.7 20 30 1026 2.4 22.1 28.9 46.2 121.2 117.8 406.0
08/05 05:50 12.2 90 9.71 10.6 22 28 1026 2.4 22.0 28.7 45.9 120.5 116.9 403.0
08/05 05:40 12.2 90 9.71 10.6 22 32 1026 2.4 22.0 28.7 45.9 120.5 116.9 403.0
08/05 05:30 12.2 89 9.61 10.4 22 33 1026 2.4 21.8 28.6 45.5 119.3 115.5 398.1
08/05 05:20 12.2 90 9.71 10.6 26 30 1025.9 2.4 22.0 28.7 45.9 120.5 116.9 403.0
08/05 05:10 12.2 91 9.82 10.8 22 28 1025.8 2.4 22.3 28.9 46.3 121.7 118.5 408.4
08/05 05:00 12.1 93 9.97 11 22 30 1025.8 2.4 22.6 29.2 47.1 123.6 120.8 416.4
08/05 04:50 12.1 93 9.97 11 19 24 1025.7 2.4 22.6 29.2 47.1 123.6 120.8 416.4
08/05 04:40 12.1 93 9.97 11 22 28 1025.7 2.4 22.6 29.2 47.1 123.6 120.8 416.4
08/05 04:30 12 94 10.02 11.1 20 30 1025.6 2.4 22.7 29.3 47.3 124.3 121.6 419.4
08/05 04:20 12 95 10.13 11.2 19 26 1025.6 2.4 22.9 29.5 47.8 125.6 123.2 424.9
08/05 04:10 12 95 10.13 11.2 26 30 1025.6 2.4 22.9 29.5 47.8 125.6 123.2 424.9
08/05 04:00 12 95 10.13 11.2 24 33 1025.5 2.4 22.9 29.5 47.8 125.6 123.2 424.9
08/05 03:50 12.2 95 10.25 11.4 24 28 1025.4 2.4 23.2 29.7 48.2 126.7 124.6 429.8
08/05 03:40 12.2 95 10.25 11.4 22 26 1025.4 2.2 23.2 29.7 48.2 126.7 124.6 429.8
08/05 03:30 12.1 95 10.19 11.3 28 37 1025.4 2.2 23.1 29.6 48.0 126.1 123.9 427.4
08/05 03:20 12.2 95 10.25 11.4 22 26 1025.4 2.2 23.2 29.7 48.2 126.7 124.6 429.8
08/05 03:10 12.3 95 10.32 11.5 30 33 1025.3 2 23.3 29.7 48.4 127.3 125.5 432.8
08/05 03:00 12.2 95 10.25 11.4 24 32 1025.4 2 23.2 29.7 48.2 126.7 124.6 429.8
08/05 02:50 12.2 95 10.25 11.4 24 30 1025.2 2 23.2 29.7 48.2 126.7 124.6 429.8
08/05 02:40 12.2 95 10.25 11.4 17 19 1025.3 2 23.2 29.7 48.2 126.7 124.6 429.8
08/05 02:30 12.3 95 10.32 11.5 22 32 1025.3 1.8 23.3 29.7 48.4 127.3 125.5 432.8
08/05 02:20 12.2 95 10.25 11.4 22 26 1025.5 1.8 23.2 29.7 48.2 126.7 124.6 429.9
08/05 02:10 12.3 95 10.32 11.5 20 24 1025.5 1.8 23.3 29.8 48.5 127.4 125.5 432.8
08/05 02:00 12.2 95 10.25 11.4 19 26 1025.5 1.8 23.2 29.7 48.2 126.7 124.6 429.9
08/05 01:50 12.1 95 10.19 11.3 19 20 1025.5 1.8 23.1 29.6 48.0 126.2 123.9 427.4
08/05 01:40 12 95 10.13 11.2 19 22 1025.5 1.8 22.9 29.5 47.8 125.6 123.2 424.9
08/05 01:30 12 95 10.13 11.2 28 39 1025.5 1.8 22.9 29.5 47.8 125.6 123.2 424.9
08/05 01:20 12.2 95 10.25 11.4 30 35 1025.6 1.8 23.2 29.7 48.2 126.7 124.6 429.9
08/05 01:10 12.3 95 10.32 11.5 30 35 1025.7 1.8 23.3 29.8 48.5 127.4 125.5 432.9
08/05 01:00 12.3 96 10.43 11.7 24 32 1025.8 1.6 23.6 30.0 49.0 128.7 127.1 438.5
08/05 00:50 12.2 95 10.25 11.4 22 26 1025.8 1.6 23.2 29.7 48.2 126.7 124.7 430.0
08/05 00:40 12.2 95 10.25 11.4 35 37 1025.9 1.6 23.2 29.7 48.2 126.7 124.7 430.0
08/05 00:30 12.2 95 10.25 11.4 20 26 1025.8 1.6 23.2 29.7 48.2 126.7 124.7 430.0
08/05 00:20 12.1 95 10.19 11.3 20 24 1025.9 1.4 23.1 29.6 48.0 126.2 124.0 427.5
08/05 00:10 12.2 95 10.25 11.4 19 24 1026 1.2 23.2 29.7 48.2 126.8 124.7 430.0
08/05 00:00 12.1 95 10.19 11.3 24 32 1026.1 1.2 23.1 29.6 48.0 126.2 124.0 427.6
07/05 23:50 12.1 94 10.08 11.2 28 32 1026 1 22.8 29.4 47.6 124.9 122.4 422.0
07/05 23:40 12.2 94 10.14 11.3 22 28 1026.2 1 23.0 29.5 47.8 125.5 123.1 424.5
07/05 23:30 12.2 94 10.14 11.3 24 32 1026.4 0.8 23.0 29.5 47.8 125.5 123.1 424.6
07/05 23:20 12.2 93 10.04 11.1 24 28 1026.4 0.8 22.7 29.3 47.3 124.4 121.7 419.6
07/05 23:10 12.2 93 10.04 11.1 24 37 1026.3 0.8 22.7 29.3 47.3 124.3 121.7 419.6
07/05 23:00 12.2 93 10.04 11.1 26 35 1026.4 0.8 22.7 29.3 47.3 124.4 121.7 419.6
07/05 22:50 12.2 92 9.93 10.9 22 26 1026.4 0.8 22.5 29.1 46.9 123.1 120.1 414.1
07/05 22:40 12.2 91 9.82 10.8 24 28 1026.3 0.8 22.3 28.9 46.4 121.8 118.5 408.6
07/05 22:30 12.3 91 9.88 10.9 28 41 1026.3 0.8 22.4 29.0 46.6 122.3 119.2 411.0
07/05 22:20 12.1 92 9.87 10.8 24 28 1026.4 0.8 22.4 29.1 46.7 122.5 119.4 411.6
07/05 22:10 12 93 9.91 10.9 26 30 1026.6 0.8 22.5 29.2 46.9 123.2 120.2 414.2
07/05 22:00 11.9 94 9.96 11 20 28 1026.6 0.8 22.6 29.3 47.2 123.9 121.0 417.3
07/05 21:50 11.9 94 9.96 11 22 26 1026.8 0.8 22.6 29.3 47.2 123.9 121.1 417.3
07/05 21:40 11.8 93 9.79 10.7 19 22 1026.7 0.6 22.2 29.0 46.5 122.1 118.8 409.3
07/05 21:30 11.7 93 9.73 10.6 24 30 1026.5 0.6 22.1 29.0 46.3 121.6 118.0 406.8
07/05 21:20 11.7 92 9.62 10.4 22 26 1026.6 0.6 21.9 28.8 45.8 120.3 116.5 401.3
07/05 21:10 11.6 92 9.56 10.3 20 22 1026.6 0.6 21.7 28.7 45.6 119.8 115.8 398.9
07/05 21:00 11.5 93 9.61 10.4 28 37 1026.6 0.6 21.9 28.8 45.9 120.5 116.7 401.9
07/05 20:50 11.4 93 9.55 10.3 24 26 1026.7 0.6 21.7 28.8 45.7 120.0 116.0 399.4
07/05 20:40 11.4 93 9.55 10.3 26 30 1026.6 0.6 21.7 28.8 45.7 119.9 115.9 399.4
07/05 20:30 11.4 92 9.44 10.1 26 35 1026.6 0.6 21.5 28.6 45.2 118.7 114.4 393.9
07/05 20:20 11.5 92 9.5 10.2 28 32 1026.8 0.4 21.6 28.6 45.4 119.2 115.1 396.5
07/05 20:10 11.5 91 9.4 10.1 26 30 1026.8 0.4 21.4 28.5 45.0 118.1 113.7 391.5
07/05 20:00 11.4 90 9.24 9.8 22 32 1026.6 0.4 21.1 28.2 44.4 116.4 111.6 384.0
07/05 19:50 11.5 88 9.09 9.6 20 24 1026.6 0.2 20.7 27.9 43.7 114.5 109.3 376.2
07/05 19:40 11.9 82 8.69 8.9 33 37 1027 0.2 19.9 27.1 41.8 109.5 103.2 355.0
07/05 19:30 12.7 74 8.24 8.2 22 37 1026.6 0.2 18.9 26.1 39.5 103.4 96.1 330.1

Last Refresh: 08-May-2026 12:07:37

Bureau of Meteorology